This is the latest recevied weather packets stored in our database for station/object EA3KZ-1. If no packets are shown the sender has not sent any weather packets the latest 10 day(s).
| Time | Temp. | Humidity | Pressure | Rain* | Wind** | Luminosity | Snow |
|---|---|---|---|---|---|---|---|
| 1777829473 | 15° C | 75% | 1009.8 hPa | 0 mm | - | - | - |
| 1777828870 | 15° C | 74% | 1009.8 hPa | 0 mm | - | - | - |
| 1777828267 | 15° C | 74% | 1009.8 hPa | 0 mm | - | - | - |
| 1777827665 | 15° C | 76% | 1009.8 hPa | 0 mm | - | - | - |
| 1777827062 | 15° C | 79% | 1009.8 hPa | 0 mm | - | - | - |
| 1777826460 | 15° C | 82% | 1009.8 hPa | 0 mm | - | - | - |
| 1777825857 | 15° C | 83% | 1009.7 hPa | 0 mm | - | - | - |
| 1777825255 | 15° C | 83% | 1009.8 hPa | 0 mm | - | - | - |
| 1777824652 | 15° C | 85% | 1009.8 hPa | 0 mm | - | - | - |
| 1777824049 | 15.56° C | 85% | 1010 hPa | 0 mm | - | - | - |
| 1777822844 | 16.67° C | 79% | 1009.8 hPa | 0 mm | - | - | - |
| 1777822242 | 16.67° C | 76% | 1009.8 hPa | 0 mm | - | - | - |
| 1777821639 | 16.67° C | 75% | 1009.7 hPa | 0 mm | - | - | - |
| 1777821036 | 16.67° C | 74% | 1009.7 hPa | 0 mm | - | - | - |
| 1777820434 | 16.67° C | 73% | 1009.8 hPa | 0 mm | - | - | - |
| 1777819831 | 17.22° C | 70% | 1009.8 hPa | 0 mm | - | - | - |
| 1777819228 | 16.67° C | 71% | 1009.8 hPa | 0 mm | - | - | - |
| 1777818626 | 17.22° C | 69% | 1010.1 hPa | 0 mm | - | - | - |
| 1777818023 | 17.22° C | 68% | 1010.3 hPa | 0 mm | - | - | - |
| 1777817420 | 18.33° C | 65% | 1010.5 hPa | 0 mm | - | - | - |
| 1777816817 | 18.33° C | 64% | 1010.7 hPa | 0 mm | - | - | - |
| 1777816215 | 17.78° C | 68% | 1010.9 hPa | 0 mm | - | - | - |
| 1777815673 | 17.78° C | 71% | 1011.1 hPa | 0 mm | - | - | - |
| 1777815070 | 17.78° C | 73% | 1011.4 hPa | 0 mm | - | - | - |
| 1777814467 | 17.22° C | 74% | 1011.5 hPa | 0 mm | - | - | - |
* Rain latest hour (hover to see other rain measurements)
** Current wind speed in m/s (hover to see current wind gust speed)